sensor_id;sensor_type;location;lat;lon;timestamp;temperature;humidity
51305;HTU21D;37392;50.964;6.952;2022-12-11T00:01:35;1.46;107.83
51305;HTU21D;37392;50.964;6.952;2022-12-11T00:04:01;1.47;107.70
51305;HTU21D;37392;50.964;6.952;2022-12-11T00:06:27;1.46;107.30
51305;HTU21D;37392;50.964;6.952;2022-12-11T00:08:53;1.43;107.46
51305;HTU21D;37392;50.964;6.952;2022-12-11T00:11:20;1.43;107.65
51305;HTU21D;37392;50.964;6.952;2022-12-11T00:13:46;1.43;107.83
51305;HTU21D;37392;50.964;6.952;2022-12-11T00:16:12;1.46;107.78
51305;HTU21D;37392;50.964;6.952;2022-12-11T00:18:38;1.43;107.96
51305;HTU21D;37392;50.964;6.952;2022-12-11T00:21:07;1.38;108.13
51305;HTU21D;37392;50.964;6.952;2022-12-11T00:23:35;1.40;108.18
51305;HTU21D;37392;50.964;6.952;2022-12-11T00:26:05;1.41;108.40
51305;HTU21D;37392;50.964;6.952;2022-12-11T00:28:32;1.42;108.43
51305;HTU21D;37392;50.964;6.952;2022-12-11T00:30:58;1.40;108.63
51305;HTU21D;37392;50.964;6.952;2022-12-11T00:33:25;1.46;108.85
51305;HTU21D;37392;50.964;6.952;2022-12-11T00:35:51;1.43;109.55
51305;HTU21D;37392;50.964;6.952;2022-12-11T00:38:19;1.43;109.56
51305;HTU21D;37392;50.964;6.952;2022-12-11T00:40:46;1.41;109.75
51305;HTU21D;37392;50.964;6.952;2022-12-11T00:43:13;1.45;109.88
51305;HTU21D;37392;50.964;6.952;2022-12-11T00:45:41;1.41;110.19
51305;HTU21D;37392;50.964;6.952;2022-12-11T00:48:09;1.39;110.37
51305;HTU21D;37392;50.964;6.952;2022-12-11T00:50:35;1.37;110.52
51305;HTU21D;37392;50.964;6.952;2022-12-11T00:53:02;1.38;110.69
51305;HTU21D;37392;50.964;6.952;2022-12-11T00:55:29;1.40;110.64
51305;HTU21D;37392;50.964;6.952;2022-12-11T00:57:54;1.41;110.81
51305;HTU21D;37392;50.964;6.952;2022-12-11T01:00:21;1.40;110.52
51305;HTU21D;37392;50.964;6.952;2022-12-11T01:02:48;1.41;110.62
51305;HTU21D;37392;50.964;6.952;2022-12-11T01:05:15;1.45;110.83
51305;HTU21D;37392;50.964;6.952;2022-12-11T01:07:40;1.47;110.74
51305;HTU21D;37392;50.964;6.952;2022-12-11T01:10:06;1.46;110.74
51305;HTU21D;37392;50.964;6.952;2022-12-11T01:12:54;1.47;110.69
51305;HTU21D;37392;50.964;6.952;2022-12-11T01:15:21;1.47;110.68
51305;HTU21D;37392;50.964;6.952;2022-12-11T01:17:51;1.47;110.79
51305;HTU21D;37392;50.964;6.952;2022-12-11T01:20:18;1.41;110.56
51305;HTU21D;37392;50.964;6.952;2022-12-11T01:22:44;1.43;110.68
51305;HTU21D;37392;50.964;6.952;2022-12-11T01:25:10;1.48;110.44
51305;HTU21D;37392;50.964;6.952;2022-12-11T01:27:37;1.50;110.54
51305;HTU21D;37392;50.964;6.952;2022-12-11T01:30:04;1.49;110.66
51305;HTU21D;37392;50.964;6.952;2022-12-11T01:32:32;1.51;110.56
51305;HTU21D;37392;50.964;6.952;2022-12-11T01:34:58;1.47;110.52
51305;HTU21D;37392;50.964;6.952;2022-12-11T01:37:24;1.49;110.39
51305;HTU21D;37392;50.964;6.952;2022-12-11T01:39:50;1.52;110.60
51305;HTU21D;37392;50.964;6.952;2022-12-11T01:42:17;1.51;110.40
51305;HTU21D;37392;50.964;6.952;2022-12-11T01:47:09;1.53;110.18
51305;HTU21D;37392;50.964;6.952;2022-12-11T01:49:35;1.49;109.83
51305;HTU21D;37392;50.964;6.952;2022-12-11T01:52:08;1.52;110.10
51305;HTU21D;37392;50.964;6.952;2022-12-11T01:54:42;1.49;109.85
51305;HTU21D;37392;50.964;6.952;2022-12-11T01:57:08;1.49;109.85
51305;HTU21D;37392;50.964;6.952;2022-12-11T01:59:38;1.50;109.93
51305;HTU21D;37392;50.964;6.952;2022-12-11T02:02:14;1.50;109.71
51305;HTU21D;37392;50.964;6.952;2022-12-11T02:04:44;1.48;109.59
51305;HTU21D;37392;50.964;6.952;2022-12-11T02:07:10;1.52;109.68
51305;HTU21D;37392;50.964;6.952;2022-12-11T02:09:38;1.52;109.49
51305;HTU21D;37392;50.964;6.952;2022-12-11T02:15:35;1.48;108.72
51305;HTU21D;37392;50.964;6.952;2022-12-11T02:20:47;1.50;108.75
51305;HTU21D;37392;50.964;6.952;2022-12-11T02:23:46;1.43;108.56
51305;HTU21D;37392;50.964;6.952;2022-12-11T02:26:21;1.47;108.65
51305;HTU21D;37392;50.964;6.952;2022-12-11T02:29:07;1.47;108.61
51305;HTU21D;37392;50.964;6.952;2022-12-11T02:31:45;1.46;108.50
51305;HTU21D;37392;50.964;6.952;2022-12-11T02:34:36;1.46;108.46
51305;HTU21D;37392;50.964;6.952;2022-12-11T02:37:10;1.46;107.99
51305;HTU21D;37392;50.964;6.952;2022-12-11T02:39:40;1.46;108.03
51305;HTU21D;37392;50.964;6.952;2022-12-11T02:42:08;1.48;108.00
51305;HTU21D;37392;50.964;6.952;2022-12-11T02:44:36;1.43;107.96
51305;HTU21D;37392;50.964;6.952;2022-12-11T02:47:03;1.42;108.17
51305;HTU21D;37392;50.964;6.952;2022-12-11T02:49:32;1.41;108.52
51305;HTU21D;37392;50.964;6.952;2022-12-11T02:51:59;1.40;108.27
51305;HTU21D;37392;50.964;6.952;2022-12-11T02:54:31;1.40;108.19
51305;HTU21D;37392;50.964;6.952;2022-12-11T02:57:04;1.40;108.48
51305;HTU21D;37392;50.964;6.952;2022-12-11T02:59:38;1.42;108.58
51305;HTU21D;37392;50.964;6.952;2022-12-11T03:02:06;1.43;108.49
51305;HTU21D;37392;50.964;6.952;2022-12-11T03:08:04;1.45;107.66
51305;HTU21D;37392;50.964;6.952;2022-12-11T03:10:29;1.43;107.89
51305;HTU21D;37392;50.964;6.952;2022-12-11T03:12:57;1.45;108.21
51305;HTU21D;37392;50.964;6.952;2022-12-11T03:18:38;1.49;108.25
51305;HTU21D;37392;50.964;6.952;2022-12-11T03:21:23;1.49;108.07
51305;HTU21D;37392;50.964;6.952;2022-12-11T03:23:56;1.48;107.76
51305;HTU21D;37392;50.964;6.952;2022-12-11T03:26:37;1.42;107.77
51305;HTU21D;37392;50.964;6.952;2022-12-11T03:29:25;1.42;107.62
51305;HTU21D;37392;50.964;6.952;2022-12-11T03:34:47;1.42;107.88
51305;HTU21D;37392;50.964;6.952;2022-12-11T03:37:18;1.39;107.82
51305;HTU21D;37392;50.964;6.952;2022-12-11T03:39:51;1.37;107.88
51305;HTU21D;37392;50.964;6.952;2022-12-11T03:42:20;1.36;107.80
51305;HTU21D;37392;50.964;6.952;2022-12-11T03:44:49;1.34;107.87
51305;HTU21D;37392;50.964;6.952;2022-12-11T03:47:21;1.38;107.76
51305;HTU21D;37392;50.964;6.952;2022-12-11T03:49:49;1.37;107.81
51305;HTU21D;37392;50.964;6.952;2022-12-11T03:52:16;1.39;107.85
51305;HTU21D;37392;50.964;6.952;2022-12-11T03:54:45;1.39;107.73
51305;HTU21D;37392;50.964;6.952;2022-12-11T03:57:16;1.40;107.68
51305;HTU21D;37392;50.964;6.952;2022-12-11T03:59:44;1.35;107.58
51305;HTU21D;37392;50.964;6.952;2022-12-11T04:02:10;1.39;107.49
51305;HTU21D;37392;50.964;6.952;2022-12-11T04:04:37;1.42;107.61
51305;HTU21D;37392;50.964;6.952;2022-12-11T04:07:07;1.40;107.67
51305;HTU21D;37392;50.964;6.952;2022-12-11T04:09:33;1.39;107.62
51305;HTU21D;37392;50.964;6.952;2022-12-11T04:11:59;1.42;107.46
51305;HTU21D;37392;50.964;6.952;2022-12-11T04:14:25;1.45;107.30
51305;HTU21D;37392;50.964;6.952;2022-12-11T04:17:10;1.43;107.18
51305;HTU21D;37392;50.964;6.952;2022-12-11T04:19:36;1.42;107.03
51305;HTU21D;37392;50.964;6.952;2022-12-11T04:22:21;1.47;107.04
51305;HTU21D;37392;50.964;6.952;2022-12-11T04:25:06;1.46;106.88
51305;HTU21D;37392;50.964;6.952;2022-12-11T04:27:32;1.43;106.62
51305;HTU21D;37392;50.964;6.952;2022-12-11T04:30:18;1.43;106.33
51305;HTU21D;37392;50.964;6.952;2022-12-11T04:32:45;1.45;105.70
51305;HTU21D;37392;50.964;6.952;2022-12-11T04:35:12;1.42;105.65
51305;HTU21D;37392;50.964;6.952;2022-12-11T04:37:39;1.48;105.59
51305;HTU21D;37392;50.964;6.952;2022-12-11T04:40:16;1.49;105.58
51305;HTU21D;37392;50.964;6.952;2022-12-11T04:42:43;1.51;105.25
51305;HTU21D;37392;50.964;6.952;2022-12-11T04:45:10;1.49;105.17
51305;HTU21D;37392;50.964;6.952;2022-12-11T04:47:37;1.46;104.89
51305;HTU21D;37392;50.964;6.952;2022-12-11T04:50:05;1.42;104.78
51305;HTU21D;37392;50.964;6.952;2022-12-11T04:52:32;1.43;104.82
51305;HTU21D;37392;50.964;6.952;2022-12-11T04:54:58;1.41;104.66
51305;HTU21D;37392;50.964;6.952;2022-12-11T04:57:24;1.42;104.85
51305;HTU21D;37392;50.964;6.952;2022-12-11T04:59:49;1.41;105.15
51305;HTU21D;37392;50.964;6.952;2022-12-11T05:02:15;1.41;105.60
51305;HTU21D;37392;50.964;6.952;2022-12-11T05:04:42;1.37;106.13
51305;HTU21D;37392;50.964;6.952;2022-12-11T05:07:07;1.35;107.14
51305;HTU21D;37392;50.964;6.952;2022-12-11T05:09:36;1.32;107.70
51305;HTU21D;37392;50.964;6.952;2022-12-11T05:12:02;1.36;108.52
51305;HTU21D;37392;50.964;6.952;2022-12-11T05:14:28;1.31;108.47
51305;HTU21D;37392;50.964;6.952;2022-12-11T05:16:57;1.32;108.90
51305;HTU21D;37392;50.964;6.952;2022-12-11T05:19:23;1.32;108.94
51305;HTU21D;37392;50.964;6.952;2022-12-11T05:21:49;1.34;109.17
51305;HTU21D;37392;50.964;6.952;2022-12-11T05:24:15;1.28;109.44
51305;HTU21D;37392;50.964;6.952;2022-12-11T05:26:41;1.27;109.62
51305;HTU21D;37392;50.964;6.952;2022-12-11T05:29:06;1.23;109.51
51305;HTU21D;37392;50.964;6.952;2022-12-11T05:31:32;1.25;109.02
51305;HTU21D;37392;50.964;6.952;2022-12-11T05:33:58;1.25;109.48
51305;HTU21D;37392;50.964;6.952;2022-12-11T05:36:29;1.21;108.91
51305;HTU21D;37392;50.964;6.952;2022-12-11T05:38:57;1.20;108.83
51305;HTU21D;37392;50.964;6.952;2022-12-11T05:41:25;1.19;109.14
51305;HTU21D;37392;50.964;6.952;2022-12-11T05:43:52;1.23;109.30
51305;HTU21D;37392;50.964;6.952;2022-12-11T05:46:23;1.21;109.07
51305;HTU21D;37392;50.964;6.952;2022-12-11T05:48:54;1.20;108.83
51305;HTU21D;37392;50.964;6.952;2022-12-11T05:51:20;1.24;108.97
51305;HTU21D;37392;50.964;6.952;2022-12-11T05:53:48;1.28;109.04
51305;HTU21D;37392;50.964;6.952;2022-12-11T05:56:22;1.24;109.07
51305;HTU21D;37392;50.964;6.952;2022-12-11T05:58:50;1.28;108.91
51305;HTU21D;37392;50.964;6.952;2022-12-11T06:01:23;1.26;108.65
51305;HTU21D;37392;50.964;6.952;2022-12-11T06:03:51;1.27;108.67
51305;HTU21D;37392;50.964;6.952;2022-12-11T06:06:18;1.32;108.84
51305;HTU21D;37392;50.964;6.952;2022-12-11T06:08:44;1.31;108.66
51305;HTU21D;37392;50.964;6.952;2022-12-11T06:11:13;1.28;108.78
51305;HTU21D;37392;50.964;6.952;2022-12-11T06:13:39;1.29;108.62
51305;HTU21D;37392;50.964;6.952;2022-12-11T06:16:06;1.29;108.80
51305;HTU21D;37392;50.964;6.952;2022-12-11T06:18:41;1.31;108.78
51305;HTU21D;37392;50.964;6.952;2022-12-11T06:21:16;1.28;108.65
51305;HTU21D;37392;50.964;6.952;2022-12-11T06:23:45;1.31;108.73
51305;HTU21D;37392;50.964;6.952;2022-12-11T06:26:12;1.29;108.41
51305;HTU21D;37392;50.964;6.952;2022-12-11T06:28:39;1.27;108.36
51305;HTU21D;37392;50.964;6.952;2022-12-11T06:31:05;1.21;108.96
51305;HTU21D;37392;50.964;6.952;2022-12-11T06:33:32;1.24;109.53
51305;HTU21D;37392;50.964;6.952;2022-12-11T06:36:03;1.27;109.86
51305;HTU21D;37392;50.964;6.952;2022-12-11T06:38:30;1.32;110.00
51305;HTU21D;37392;50.964;6.952;2022-12-11T06:40:58;1.36;110.25
51305;HTU21D;37392;50.964;6.952;2022-12-11T06:43:24;1.36;110.10
51305;HTU21D;37392;50.964;6.952;2022-12-11T06:45:50;1.40;109.71
51305;HTU21D;37392;50.964;6.952;2022-12-11T06:48:17;1.32;109.97
51305;HTU21D;37392;50.964;6.952;2022-12-11T06:50:43;1.31;110.08
51305;HTU21D;37392;50.964;6.952;2022-12-11T06:53:10;1.24;110.08
51305;HTU21D;37392;50.964;6.952;2022-12-11T06:55:37;1.18;110.33
51305;HTU21D;37392;50.964;6.952;2022-12-11T06:58:06;1.18;110.52
51305;HTU21D;37392;50.964;6.952;2022-12-11T07:00:34;1.19;110.71
51305;HTU21D;37392;50.964;6.952;2022-12-11T07:03:00;1.17;110.65
51305;HTU21D;37392;50.964;6.952;2022-12-11T07:05:26;1.13;110.65
51305;HTU21D;37392;50.964;6.952;2022-12-11T07:07:53;1.19;110.94
51305;HTU21D;37392;50.964;6.952;2022-12-11T07:10:19;1.20;111.08
51305;HTU21D;37392;50.964;6.952;2022-12-11T07:12:45;1.17;111.20
51305;HTU21D;37392;50.964;6.952;2022-12-11T07:15:11;1.16;111.11
51305;HTU21D;37392;50.964;6.952;2022-12-11T07:17:36;1.14;111.26
51305;HTU21D;37392;50.964;6.952;2022-12-11T07:20:03;1.14;111.44
51305;HTU21D;37392;50.964;6.952;2022-12-11T07:22:29;1.21;111.23
51305;HTU21D;37392;50.964;6.952;2022-12-11T07:24:54;1.18;111.39
51305;HTU21D;37392;50.964;6.952;2022-12-11T07:27:20;1.23;111.52
51305;HTU21D;37392;50.964;6.952;2022-12-11T07:29:46;1.28;111.22
51305;HTU21D;37392;50.964;6.952;2022-12-11T07:32:11;1.20;111.07
51305;HTU21D;37392;50.964;6.952;2022-12-11T07:34:37;1.24;111.00
51305;HTU21D;37392;50.964;6.952;2022-12-11T07:37:03;1.23;111.11
51305;HTU21D;37392;50.964;6.952;2022-12-11T07:39:31;1.22;110.95
51305;HTU21D;37392;50.964;6.952;2022-12-11T07:41:57;1.21;110.93
51305;HTU21D;37392;50.964;6.952;2022-12-11T07:44:26;1.22;110.84
51305;HTU21D;37392;50.964;6.952;2022-12-11T07:46:51;1.23;110.73
51305;HTU21D;37392;50.964;6.952;2022-12-11T07:49:17;1.18;110.36
51305;HTU21D;37392;50.964;6.952;2022-12-11T07:51:43;1.18;110.62
51305;HTU21D;37392;50.964;6.952;2022-12-11T07:54:11;1.24;110.83
51305;HTU21D;37392;50.964;6.952;2022-12-11T07:56:45;1.22;110.43
51305;HTU21D;37392;50.964;6.952;2022-12-11T07:59:12;1.21;110.53
51305;HTU21D;37392;50.964;6.952;2022-12-11T08:01:39;1.24;110.60
51305;HTU21D;37392;50.964;6.952;2022-12-11T08:04:08;1.31;110.39
51305;HTU21D;37392;50.964;6.952;2022-12-11T08:06:39;1.33;109.63
51305;HTU21D;37392;50.964;6.952;2022-12-11T08:09:09;1.32;109.14
51305;HTU21D;37392;50.964;6.952;2022-12-11T08:11:37;1.33;109.41
51305;HTU21D;37392;50.964;6.952;2022-12-11T08:14:05;1.33;109.18
51305;HTU21D;37392;50.964;6.952;2022-12-11T08:16:33;1.37;109.42
51305;HTU21D;37392;50.964;6.952;2022-12-11T08:18:58;1.40;109.14
51305;HTU21D;37392;50.964;6.952;2022-12-11T08:21:25;1.40;109.03
51305;HTU21D;37392;50.964;6.952;2022-12-11T08:23:53;1.40;109.14
51305;HTU21D;37392;50.964;6.952;2022-12-11T08:26:25;1.43;108.77
51305;HTU21D;37392;50.964;6.952;2022-12-11T08:28:52;1.49;108.64
51305;HTU21D;37392;50.964;6.952;2022-12-11T08:31:20;1.50;108.39
51305;HTU21D;37392;50.964;6.952;2022-12-11T08:33:46;1.52;107.43
51305;HTU21D;37392;50.964;6.952;2022-12-11T08:36:15;1.54;107.45
51305;HTU21D;37392;50.964;6.952;2022-12-11T08:38:42;1.56;107.18
51305;HTU21D;37392;50.964;6.952;2022-12-11T08:41:16;1.64;107.48
51305;HTU21D;37392;50.964;6.952;2022-12-11T08:43:44;1.65;107.79
51305;HTU21D;37392;50.964;6.952;2022-12-11T08:46:10;1.67;107.62
51305;HTU21D;37392;50.964;6.952;2022-12-11T08:48:38;1.70;107.16
51305;HTU21D;37392;50.964;6.952;2022-12-11T08:51:07;1.75;107.01
51305;HTU21D;37392;50.964;6.952;2022-12-11T08:53:35;1.78;107.34
51305;HTU21D;37392;50.964;6.952;2022-12-11T08:56:06;1.79;106.65
51305;HTU21D;37392;50.964;6.952;2022-12-11T08:58:34;1.81;106.63
51305;HTU21D;37392;50.964;6.952;2022-12-11T09:01:08;1.85;106.75
51305;HTU21D;37392;50.964;6.952;2022-12-11T09:03:41;1.86;106.80
51305;HTU21D;37392;50.964;6.952;2022-12-11T09:06:09;1.88;106.59
51305;HTU21D;37392;50.964;6.952;2022-12-11T09:08:37;1.91;106.30
51305;HTU21D;37392;50.964;6.952;2022-12-11T09:11:05;1.95;106.34
51305;HTU21D;37392;50.964;6.952;2022-12-11T09:13:36;1.97;106.24
51305;HTU21D;37392;50.964;6.952;2022-12-11T09:16:08;1.97;105.10
51305;HTU21D;37392;50.964;6.952;2022-12-11T09:18:37;1.93;104.88
51305;HTU21D;37392;50.964;6.952;2022-12-11T09:21:11;2.02;105.27
51305;HTU21D;37392;50.964;6.952;2022-12-11T09:23:46;1.99;104.76
51305;HTU21D;37392;50.964;6.952;2022-12-11T09:26:22;1.99;104.71
51305;HTU21D;37392;50.964;6.952;2022-12-11T09:28:48;2.02;104.48
51305;HTU21D;37392;50.964;6.952;2022-12-11T09:31:29;2.06;104.53
51305;HTU21D;37392;50.964;6.952;2022-12-11T09:34:28;2.02;104.47
51305;HTU21D;37392;50.964;6.952;2022-12-11T09:37:45;2.07;104.75
51305;HTU21D;37392;50.964;6.952;2022-12-11T09:40:23;2.10;104.86
51305;HTU21D;37392;50.964;6.952;2022-12-11T09:42:59;2.13;104.50
51305;HTU21D;37392;50.964;6.952;2022-12-11T09:45:38;2.09;104.44
51305;HTU21D;37392;50.964;6.952;2022-12-11T09:48:07;2.09;104.57
51305;HTU21D;37392;50.964;6.952;2022-12-11T09:50:54;2.10;103.70
51305;HTU21D;37392;50.964;6.952;2022-12-11T09:53:28;2.10;104.12
51305;HTU21D;37392;50.964;6.952;2022-12-11T10:12:13;2.03;104.28
51305;HTU21D;37392;50.964;6.952;2022-12-11T10:18:08;2.08;104.42
51305;HTU21D;37392;50.964;6.952;2022-12-11T10:20:38;2.13;104.14
51305;HTU21D;37392;50.964;6.952;2022-12-11T10:23:15;2.17;103.66
51305;HTU21D;37392;50.964;6.952;2022-12-11T10:25:48;2.19;103.76
51305;HTU21D;37392;50.964;6.952;2022-12-11T10:28:31;2.23;103.68
51305;HTU21D;37392;50.964;6.952;2022-12-11T10:31:13;2.24;102.98
51305;HTU21D;37392;50.964;6.952;2022-12-11T10:34:03;2.17;102.74
51305;HTU21D;37392;50.964;6.952;2022-12-11T10:36:37;2.19;102.77
51305;HTU21D;37392;50.964;6.952;2022-12-11T10:39:17;2.17;102.73
51305;HTU21D;37392;50.964;6.952;2022-12-11T10:41:47;2.14;102.63
51305;HTU21D;37392;50.964;6.952;2022-12-11T10:44:25;2.06;102.99
51305;HTU21D;37392;50.964;6.952;2022-12-11T10:47:25;2.07;103.28
51305;HTU21D;37392;50.964;6.952;2022-12-11T10:50:20;1.95;103.23
51305;HTU21D;37392;50.964;6.952;2022-12-11T10:52:49;1.86;103.49
51305;HTU21D;37392;50.964;6.952;2022-12-11T10:55:29;1.83;103.76
51305;HTU21D;37392;50.964;6.952;2022-12-11T10:58:46;1.83;104.28
51305;HTU21D;37392;50.964;6.952;2022-12-11T11:01:47;1.84;103.89
51305;HTU21D;37392;50.964;6.952;2022-12-11T11:04:43;1.81;104.54
51305;HTU21D;37392;50.964;6.952;2022-12-11T11:07:25;1.81;104.74
51305;HTU21D;37392;50.964;6.952;2022-12-11T11:10:15;1.86;104.24
51305;HTU21D;37392;50.964;6.952;2022-12-11T11:13:33;1.84;104.40
51305;HTU21D;37392;50.964;6.952;2022-12-11T11:16:12;1.87;104.24
51305;HTU21D;37392;50.964;6.952;2022-12-11T11:18:56;1.96;104.29
51305;HTU21D;37392;50.964;6.952;2022-12-11T11:21:24;1.88;104.47
51305;HTU21D;37392;50.964;6.952;2022-12-11T11:23:52;1.93;103.96
51305;HTU21D;37392;50.964;6.952;2022-12-11T11:26:20;1.97;103.32
51305;HTU21D;37392;50.964;6.952;2022-12-11T11:28:54;2.03;103.25
51305;HTU21D;37392;50.964;6.952;2022-12-11T11:31:30;2.14;103.20
51305;HTU21D;37392;50.964;6.952;2022-12-11T11:34:07;2.24;103.20
51305;HTU21D;37392;50.964;6.952;2022-12-11T11:36:36;2.24;102.29
51305;HTU21D;37392;50.964;6.952;2022-12-11T11:39:25;2.08;102.37
51305;HTU21D;37392;50.964;6.952;2022-12-11T11:42:16;2.09;102.25
51305;HTU21D;37392;50.964;6.952;2022-12-11T11:47:35;2.08;102.73
51305;HTU21D;37392;50.964;6.952;2022-12-11T11:50:15;2.17;102.76
51305;HTU21D;37392;50.964;6.952;2022-12-11T11:52:50;2.19;103.01
51305;HTU21D;37392;50.964;6.952;2022-12-11T12:01:32;2.19;102.10
51305;HTU21D;37392;50.964;6.952;2022-12-11T12:03:58;2.24;101.51
51305;HTU21D;37392;50.964;6.952;2022-12-11T12:06:38;2.23;101.39
51305;HTU21D;37392;50.964;6.952;2022-12-11T12:09:29;2.23;100.51
51305;HTU21D;37392;50.964;6.952;2022-12-11T12:12:13;2.28;99.48
51305;HTU21D;37392;50.964;6.952;2022-12-11T12:14:53;2.39;99.44
51305;HTU21D;37392;50.964;6.952;2022-12-11T12:17:25;2.45;99.02
51305;HTU21D;37392;50.964;6.952;2022-12-11T12:40:19;2.59;99.14
51305;HTU21D;37392;50.964;6.952;2022-12-11T12:45:58;2.75;97.94
51305;HTU21D;37392;50.964;6.952;2022-12-11T12:48:37;2.72;97.29
51305;HTU21D;37392;50.964;6.952;2022-12-11T12:51:03;2.75;97.51
51305;HTU21D;37392;50.964;6.952;2022-12-11T12:53:32;2.73;96.71
51305;HTU21D;37392;50.964;6.952;2022-12-11T12:56:00;2.68;97.44
51305;HTU21D;37392;50.964;6.952;2022-12-11T13:01:09;2.80;97.05
51305;HTU21D;37392;50.964;6.952;2022-12-11T13:06:42;2.60;96.97
51305;HTU21D;37392;50.964;6.952;2022-12-11T13:09:18;2.52;97.31
51305;HTU21D;37392;50.964;6.952;2022-12-11T13:11:46;2.54;98.13
51305;HTU21D;37392;50.964;6.952;2022-12-11T13:19:47;2.55;96.50
51305;HTU21D;37392;50.964;6.952;2022-12-11T13:22:28;2.52;96.51
51305;HTU21D;37392;50.964;6.952;2022-12-11T13:27:39;2.55;96.90
51305;HTU21D;37392;50.964;6.952;2022-12-11T13:33:17;2.55;95.62
51305;HTU21D;37392;50.964;6.952;2022-12-11T13:35:44;2.57;96.06
51305;HTU21D;37392;50.964;6.952;2022-12-11T13:38:19;2.59;95.92
51305;HTU21D;37392;50.964;6.952;2022-12-11T13:40:52;2.62;95.52
51305;HTU21D;37392;50.964;6.952;2022-12-11T13:43:25;2.58;95.72
51305;HTU21D;37392;50.964;6.952;2022-12-11T13:45:58;2.54;95.77
51305;HTU21D;37392;50.964;6.952;2022-12-11T13:48:41;2.52;95.39
51305;HTU21D;37392;50.964;6.952;2022-12-11T13:51:17;2.50;95.54
51305;HTU21D;37392;50.964;6.952;2022-12-11T13:53:47;2.45;95.10
51305;HTU21D;37392;50.964;6.952;2022-12-11T13:56:22;2.47;95.59
51305;HTU21D;37392;50.964;6.952;2022-12-11T13:58:47;2.50;95.94
51305;HTU21D;37392;50.964;6.952;2022-12-11T14:01:21;2.55;96.39
51305;HTU21D;37392;50.964;6.952;2022-12-11T14:04:02;2.55;95.49
51305;HTU21D;37392;50.964;6.952;2022-12-11T14:06:32;2.55;95.44
51305;HTU21D;37392;50.964;6.952;2022-12-11T14:09:00;2.47;95.83
51305;HTU21D;37392;50.964;6.952;2022-12-11T14:11:30;2.50;95.99
51305;HTU21D;37392;50.964;6.952;2022-12-11T14:14:01;2.42;95.75
51305;HTU21D;37392;50.964;6.952;2022-12-11T14:16:29;2.39;96.03
51305;HTU21D;37392;50.964;6.952;2022-12-11T14:19:02;2.39;96.33
51305;HTU21D;37392;50.964;6.952;2022-12-11T14:21:30;2.39;96.40
51305;HTU21D;37392;50.964;6.952;2022-12-11T14:23:58;2.35;96.10
51305;HTU21D;37392;50.964;6.952;2022-12-11T14:26:27;2.29;95.97
51305;HTU21D;37392;50.964;6.952;2022-12-11T14:28:57;2.26;96.60
51305;HTU21D;37392;50.964;6.952;2022-12-11T14:31:53;2.23;97.10
51305;HTU21D;37392;50.964;6.952;2022-12-11T14:34:46;2.21;96.94
51305;HTU21D;37392;50.964;6.952;2022-12-11T14:37:15;2.11;96.96
51305;HTU21D;37392;50.964;6.952;2022-12-11T14:42:21;2.12;96.75
51305;HTU21D;37392;50.964;6.952;2022-12-11T14:44:54;2.16;96.87
51305;HTU21D;37392;50.964;6.952;2022-12-11T14:47:25;2.15;96.82
51305;HTU21D;37392;50.964;6.952;2022-12-11T14:50:25;2.19;96.81
51305;HTU21D;37392;50.964;6.952;2022-12-11T14:52:52;2.17;96.65
51305;HTU21D;37392;50.964;6.952;2022-12-11T14:55:29;2.17;97.07
51305;HTU21D;37392;50.964;6.952;2022-12-11T14:57:59;2.19;96.59
51305;HTU21D;37392;50.964;6.952;2022-12-11T15:00:37;2.17;96.38
51305;HTU21D;37392;50.964;6.952;2022-12-11T15:03:22;2.14;96.36
51305;HTU21D;37392;50.964;6.952;2022-12-11T15:05:51;2.13;96.53
51305;HTU21D;37392;50.964;6.952;2022-12-11T15:08:29;2.12;96.82
51305;HTU21D;37392;50.964;6.952;2022-12-11T15:13:25;2.12;97.01
51305;HTU21D;37392;50.964;6.952;2022-12-11T15:15:51;2.13;97.19
51305;HTU21D;37392;50.964;6.952;2022-12-11T15:20:56;2.07;97.83
51305;HTU21D;37392;50.964;6.952;2022-12-11T15:23:24;2.11;97.71
51305;HTU21D;37392;50.964;6.952;2022-12-11T15:26:00;2.11;97.07
51305;HTU21D;37392;50.964;6.952;2022-12-11T15:28:36;2.05;96.78
51305;HTU21D;37392;50.964;6.952;2022-12-11T15:31:06;2.06;96.99
51305;HTU21D;37392;50.964;6.952;2022-12-11T15:33:46;2.07;96.66
51305;HTU21D;37392;50.964;6.952;2022-12-11T15:36:32;2.06;96.33
51305;HTU21D;37392;50.964;6.952;2022-12-11T15:39:03;2.01;96.76
51305;HTU21D;37392;50.964;6.952;2022-12-11T15:41:35;2.01;96.83
51305;HTU21D;37392;50.964;6.952;2022-12-11T15:44:02;1.98;96.68
51305;HTU21D;37392;50.964;6.952;2022-12-11T15:46:28;1.96;96.54
51305;HTU21D;37392;50.964;6.952;2022-12-11T15:48:55;1.99;96.36
51305;HTU21D;37392;50.964;6.952;2022-12-11T15:51:22;1.99;96.04
51305;HTU21D;37392;50.964;6.952;2022-12-11T15:53:49;2.02;96.24
51305;HTU21D;37392;50.964;6.952;2022-12-11T15:56:23;1.99;96.11
51305;HTU21D;37392;50.964;6.952;2022-12-11T15:58:49;2.06;96.33
51305;HTU21D;37392;50.964;6.952;2022-12-11T16:01:18;2.01;96.57
51305;HTU21D;37392;50.964;6.952;2022-12-11T16:03:48;2.00;96.20
51305;HTU21D;37392;50.964;6.952;2022-12-11T16:06:14;1.97;96.07
51305;HTU21D;37392;50.964;6.952;2022-12-11T16:08:40;2.02;96.42
51305;HTU21D;37392;50.964;6.952;2022-12-11T16:11:06;1.95;96.29
51305;HTU21D;37392;50.964;6.952;2022-12-11T16:13:31;1.96;96.04
51305;HTU21D;37392;50.964;6.952;2022-12-11T16:15:57;1.93;96.42
51305;HTU21D;37392;50.964;6.952;2022-12-11T16:18:23;1.92;96.82
51305;HTU21D;37392;50.964;6.952;2022-12-11T16:20:52;1.90;96.93
51305;HTU21D;37392;50.964;6.952;2022-12-11T16:23:18;1.86;96.73
51305;HTU21D;37392;50.964;6.952;2022-12-11T16:25:45;1.85;97.09
51305;HTU21D;37392;50.964;6.952;2022-12-11T16:28:12;1.83;97.45
51305;HTU21D;37392;50.964;6.952;2022-12-11T16:30:40;1.82;97.59
51305;HTU21D;37392;50.964;6.952;2022-12-11T16:33:08;1.86;97.57
51305;HTU21D;37392;50.964;6.952;2022-12-11T16:35:34;1.88;97.68
51305;HTU21D;37392;50.964;6.952;2022-12-11T16:38:00;1.92;96.91
51305;HTU21D;37392;50.964;6.952;2022-12-11T16:40:28;1.91;96.97
51305;HTU21D;37392;50.964;6.952;2022-12-11T16:42:54;1.90;96.96
51305;HTU21D;37392;50.964;6.952;2022-12-11T16:45:24;1.90;96.75
51305;HTU21D;37392;50.964;6.952;2022-12-11T16:47:51;1.88;96.69
51305;HTU21D;37392;50.964;6.952;2022-12-11T16:50:17;1.91;96.63
51305;HTU21D;37392;50.964;6.952;2022-12-11T16:52:44;1.92;96.62
51305;HTU21D;37392;50.964;6.952;2022-12-11T16:55:11;1.86;96.50
51305;HTU21D;37392;50.964;6.952;2022-12-11T16:57:37;1.85;96.89
51305;HTU21D;37392;50.964;6.952;2022-12-11T17:00:04;1.85;97.11
51305;HTU21D;37392;50.964;6.952;2022-12-11T17:02:31;1.85;97.55
51305;HTU21D;37392;50.964;6.952;2022-12-11T17:04:56;1.82;98.03
51305;HTU21D;37392;50.964;6.952;2022-12-11T17:07:22;1.78;98.19
51305;HTU21D;37392;50.964;6.952;2022-12-11T17:09:48;1.75;98.16
51305;HTU21D;37392;50.964;6.952;2022-12-11T17:12:25;1.70;98.19
51305;HTU21D;37392;50.964;6.952;2022-12-11T17:14:58;1.67;98.16
51305;HTU21D;37392;50.964;6.952;2022-12-11T17:17:24;1.67;98.23
51305;HTU21D;37392;50.964;6.952;2022-12-11T17:19:50;1.63;98.60